sensor_id;sensor_type;location;lat;lon;timestamp;P1;durP1;ratioP1;P2;durP2;ratioP2
13805;SDS011;6974;53.606;9.872;2024-02-28T00:00:28;31.20;;;26.47;;
13805;SDS011;6974;53.606;9.872;2024-02-28T00:02:55;35.67;;;27.60;;
13805;SDS011;6974;53.606;9.872;2024-02-28T00:05:22;34.27;;;27.67;;
13805;SDS011;6974;53.606;9.872;2024-02-28T00:07:48;33.77;;;27.40;;
13805;SDS011;6974;53.606;9.872;2024-02-28T00:10:17;34.10;;;27.87;;
13805;SDS011;6974;53.606;9.872;2024-02-28T00:12:44;32.33;;;27.27;;
13805;SDS011;6974;53.606;9.872;2024-02-28T00:15:11;34.70;;;27.83;;
13805;SDS011;6974;53.606;9.872;2024-02-28T00:17:39;32.33;;;27.07;;
13805;SDS011;6974;53.606;9.872;2024-02-28T00:20:07;31.67;;;26.77;;
13805;SDS011;6974;53.606;9.872;2024-02-28T00:22:35;33.77;;;27.87;;
13805;SDS011;6974;53.606;9.872;2024-02-28T00:25:02;35.30;;;28.47;;
13805;SDS011;6974;53.606;9.872;2024-02-28T00:27:31;35.77;;;28.60;;
13805;SDS011;6974;53.606;9.872;2024-02-28T00:29:58;33.33;;;27.33;;
13805;SDS011;6974;53.606;9.872;2024-02-28T00:32:25;33.77;;;27.77;;
13805;SDS011;6974;53.606;9.872;2024-02-28T00:34:53;33.33;;;26.60;;
13805;SDS011;6974;53.606;9.872;2024-02-28T00:37:20;33.23;;;27.83;;
13805;SDS011;6974;53.606;9.872;2024-02-28T00:39:47;32.97;;;26.97;;
13805;SDS011;6974;53.606;9.872;2024-02-28T00:42:14;33.43;;;27.20;;
13805;SDS011;6974;53.606;9.872;2024-02-28T00:44:41;33.20;;;26.60;;
13805;SDS011;6974;53.606;9.872;2024-02-28T00:47:08;31.93;;;27.00;;
13805;SDS011;6974;53.606;9.872;2024-02-28T00:49:35;33.83;;;27.03;;
13805;SDS011;6974;53.606;9.872;2024-02-28T00:52:03;31.43;;;26.13;;
13805;SDS011;6974;53.606;9.872;2024-02-28T00:54:30;33.50;;;26.20;;
13805;SDS011;6974;53.606;9.872;2024-02-28T00:56:57;34.53;;;27.27;;
13805;SDS011;6974;53.606;9.872;2024-02-28T00:59:24;33.17;;;26.87;;
13805;SDS011;6974;53.606;9.872;2024-02-28T01:01:51;32.33;;;26.30;;
13805;SDS011;6974;53.606;9.872;2024-02-28T01:04:18;34.80;;;26.97;;
13805;SDS011;6974;53.606;9.872;2024-02-28T01:06:45;33.17;;;26.47;;
13805;SDS011;6974;53.606;9.872;2024-02-28T01:09:13;32.90;;;24.90;;
13805;SDS011;6974;53.606;9.872;2024-02-28T01:11:40;33.13;;;26.50;;
13805;SDS011;6974;53.606;9.872;2024-02-28T01:14:06;30.57;;;24.80;;
13805;SDS011;6974;53.606;9.872;2024-02-28T01:16:33;32.97;;;26.23;;
13805;SDS011;6974;53.606;9.872;2024-02-28T01:19:00;31.83;;;24.77;;
13805;SDS011;6974;53.606;9.872;2024-02-28T01:21:28;34.13;;;25.13;;
13805;SDS011;6974;53.606;9.872;2024-02-28T01:23:54;31.40;;;25.30;;
13805;SDS011;6974;53.606;9.872;2024-02-28T01:26:22;31.23;;;24.47;;
13805;SDS011;6974;53.606;9.872;2024-02-28T01:28:49;30.27;;;24.77;;
13805;SDS011;6974;53.606;9.872;2024-02-28T01:31:16;31.47;;;24.60;;
13805;SDS011;6974;53.606;9.872;2024-02-28T01:33:43;30.40;;;24.57;;
13805;SDS011;6974;53.606;9.872;2024-02-28T01:36:11;33.53;;;25.40;;
13805;SDS011;6974;53.606;9.872;2024-02-28T01:38:38;31.60;;;25.63;;
13805;SDS011;6974;53.606;9.872;2024-02-28T01:41:05;32.03;;;24.53;;
13805;SDS011;6974;53.606;9.872;2024-02-28T01:43:34;30.47;;;23.97;;
13805;SDS011;6974;53.606;9.872;2024-02-28T01:46:01;30.57;;;24.10;;
13805;SDS011;6974;53.606;9.872;2024-02-28T01:48:30;31.03;;;23.87;;
13805;SDS011;6974;53.606;9.872;2024-02-28T01:50:57;32.27;;;25.07;;
13805;SDS011;6974;53.606;9.872;2024-02-28T01:53:24;31.13;;;23.87;;
13805;SDS011;6974;53.606;9.872;2024-02-28T01:55:51;30.77;;;23.53;;
13805;SDS011;6974;53.606;9.872;2024-02-28T01:58:19;30.30;;;22.83;;
13805;SDS011;6974;53.606;9.872;2024-02-28T02:00:47;29.00;;;22.97;;
13805;SDS011;6974;53.606;9.872;2024-02-28T02:03:15;29.07;;;23.10;;
13805;SDS011;6974;53.606;9.872;2024-02-28T02:05:42;31.63;;;23.37;;
13805;SDS011;6974;53.606;9.872;2024-02-28T02:08:09;30.40;;;23.20;;
13805;SDS011;6974;53.606;9.872;2024-02-28T02:10:36;32.10;;;23.30;;
13805;SDS011;6974;53.606;9.872;2024-02-28T02:13:05;30.70;;;23.90;;
13805;SDS011;6974;53.606;9.872;2024-02-28T02:15:32;30.60;;;22.73;;
13805;SDS011;6974;53.606;9.872;2024-02-28T02:18:01;31.20;;;24.10;;
13805;SDS011;6974;53.606;9.872;2024-02-28T02:20:28;30.50;;;22.07;;
13805;SDS011;6974;53.606;9.872;2024-02-28T02:22:59;31.00;;;23.83;;
13805;SDS011;6974;53.606;9.872;2024-02-28T02:25:26;27.33;;;21.37;;
13805;SDS011;6974;53.606;9.872;2024-02-28T02:27:53;26.47;;;19.80;;
13805;SDS011;6974;53.606;9.872;2024-02-28T02:30:20;29.40;;;22.07;;
13805;SDS011;6974;53.606;9.872;2024-02-28T02:32:47;27.93;;;21.67;;
13805;SDS011;6974;53.606;9.872;2024-02-28T02:35:13;28.00;;;21.67;;
13805;SDS011;6974;53.606;9.872;2024-02-28T02:37:43;30.70;;;22.40;;
13805;SDS011;6974;53.606;9.872;2024-02-28T02:40:12;27.83;;;21.17;;
13805;SDS011;6974;53.606;9.872;2024-02-28T02:42:39;29.63;;;22.07;;
13805;SDS011;6974;53.606;9.872;2024-02-28T02:45:06;26.60;;;20.80;;
13805;SDS011;6974;53.606;9.872;2024-02-28T02:47:33;31.27;;;21.17;;
13805;SDS011;6974;53.606;9.872;2024-02-28T02:50:00;26.53;;;20.30;;
13805;SDS011;6974;53.606;9.872;2024-02-28T02:52:27;27.90;;;21.13;;
13805;SDS011;6974;53.606;9.872;2024-02-28T02:54:54;26.90;;;21.20;;
13805;SDS011;6974;53.606;9.872;2024-02-28T02:57:22;30.03;;;21.33;;
13805;SDS011;6974;53.606;9.872;2024-02-28T02:59:49;27.63;;;21.33;;
13805;SDS011;6974;53.606;9.872;2024-02-28T03:02:16;28.53;;;21.70;;
13805;SDS011;6974;53.606;9.872;2024-02-28T03:04:42;27.17;;;20.20;;
13805;SDS011;6974;53.606;9.872;2024-02-28T03:07:09;27.47;;;20.53;;
13805;SDS011;6974;53.606;9.872;2024-02-28T03:09:36;28.30;;;20.57;;
13805;SDS011;6974;53.606;9.872;2024-02-28T03:12:03;28.40;;;20.70;;
13805;SDS011;6974;53.606;9.872;2024-02-28T03:14:31;28.27;;;20.10;;
13805;SDS011;6974;53.606;9.872;2024-02-28T03:16:58;27.57;;;20.87;;
13805;SDS011;6974;53.606;9.872;2024-02-28T03:19:25;29.57;;;20.43;;
13805;SDS011;6974;53.606;9.872;2024-02-28T03:21:52;30.40;;;22.17;;
13805;SDS011;6974;53.606;9.872;2024-02-28T03:24:18;27.47;;;20.07;;
13805;SDS011;6974;53.606;9.872;2024-02-28T03:26:45;28.23;;;20.87;;
13805;SDS011;6974;53.606;9.872;2024-02-28T03:29:12;26.57;;;19.63;;
13805;SDS011;6974;53.606;9.872;2024-02-28T03:31:40;27.50;;;20.57;;
13805;SDS011;6974;53.606;9.872;2024-02-28T03:34:07;29.17;;;19.93;;
13805;SDS011;6974;53.606;9.872;2024-02-28T03:36:34;31.03;;;20.13;;
13805;SDS011;6974;53.606;9.872;2024-02-28T03:39:01;28.87;;;20.40;;
13805;SDS011;6974;53.606;9.872;2024-02-28T03:41:28;28.50;;;20.00;;
13805;SDS011;6974;53.606;9.872;2024-02-28T03:43:55;25.73;;;19.37;;
13805;SDS011;6974;53.606;9.872;2024-02-28T03:46:21;30.30;;;21.43;;
13805;SDS011;6974;53.606;9.872;2024-02-28T03:48:49;29.87;;;20.33;;
13805;SDS011;6974;53.606;9.872;2024-02-28T03:51:16;29.10;;;19.80;;
13805;SDS011;6974;53.606;9.872;2024-02-28T03:53:43;27.83;;;19.03;;
13805;SDS011;6974;53.606;9.872;2024-02-28T03:56:10;27.60;;;19.83;;
13805;SDS011;6974;53.606;9.872;2024-02-28T03:58:37;27.83;;;19.60;;
13805;SDS011;6974;53.606;9.872;2024-02-28T04:01:04;29.03;;;19.73;;
13805;SDS011;6974;53.606;9.872;2024-02-28T04:03:31;26.07;;;19.70;;
13805;SDS011;6974;53.606;9.872;2024-02-28T04:05:59;27.73;;;19.43;;
13805;SDS011;6974;53.606;9.872;2024-02-28T04:08:25;26.57;;;19.90;;
13805;SDS011;6974;53.606;9.872;2024-02-28T04:10:52;28.07;;;20.00;;
13805;SDS011;6974;53.606;9.872;2024-02-28T04:13:19;28.40;;;19.93;;
13805;SDS011;6974;53.606;9.872;2024-02-28T04:15:46;28.33;;;20.40;;
13805;SDS011;6974;53.606;9.872;2024-02-28T04:18:12;26.40;;;19.13;;
13805;SDS011;6974;53.606;9.872;2024-02-28T04:20:39;28.87;;;19.80;;
13805;SDS011;6974;53.606;9.872;2024-02-28T04:23:07;25.90;;;19.37;;
13805;SDS011;6974;53.606;9.872;2024-02-28T04:25:34;28.27;;;20.13;;
13805;SDS011;6974;53.606;9.872;2024-02-28T04:28:01;27.90;;;20.03;;
13805;SDS011;6974;53.606;9.872;2024-02-28T04:30:28;27.57;;;20.27;;
13805;SDS011;6974;53.606;9.872;2024-02-28T04:32:54;24.97;;;18.57;;
13805;SDS011;6974;53.606;9.872;2024-02-28T04:35:21;27.53;;;19.70;;
13805;SDS011;6974;53.606;9.872;2024-02-28T04:37:48;30.97;;;21.57;;
13805;SDS011;6974;53.606;9.872;2024-02-28T04:40:17;28.43;;;19.97;;
13805;SDS011;6974;53.606;9.872;2024-02-28T04:42:43;29.93;;;20.33;;
13805;SDS011;6974;53.606;9.872;2024-02-28T04:45:10;27.83;;;19.43;;
13805;SDS011;6974;53.606;9.872;2024-02-28T04:47:37;27.83;;;20.27;;
13805;SDS011;6974;53.606;9.872;2024-02-28T04:50:05;27.10;;;19.97;;
13805;SDS011;6974;53.606;9.872;2024-02-28T04:52:32;27.43;;;20.40;;
13805;SDS011;6974;53.606;9.872;2024-02-28T04:54:59;29.33;;;20.40;;
13805;SDS011;6974;53.606;9.872;2024-02-28T04:57:27;28.20;;;19.67;;
13805;SDS011;6974;53.606;9.872;2024-02-28T04:59:54;29.73;;;21.10;;
13805;SDS011;6974;53.606;9.872;2024-02-28T05:02:21;26.43;;;19.93;;
13805;SDS011;6974;53.606;9.872;2024-02-28T05:04:49;28.37;;;19.80;;
13805;SDS011;6974;53.606;9.872;2024-02-28T05:07:16;28.10;;;20.70;;
13805;SDS011;6974;53.606;9.872;2024-02-28T05:09:42;31.27;;;20.50;;
13805;SDS011;6974;53.606;9.872;2024-02-28T05:12:09;30.10;;;21.27;;
13805;SDS011;6974;53.606;9.872;2024-02-28T05:14:39;31.67;;;22.37;;
13805;SDS011;6974;53.606;9.872;2024-02-28T05:17:06;31.67;;;21.50;;
13805;SDS011;6974;53.606;9.872;2024-02-28T05:19:32;30.73;;;20.50;;
13805;SDS011;6974;53.606;9.872;2024-02-28T05:21:59;33.70;;;23.80;;
13805;SDS011;6974;53.606;9.872;2024-02-28T05:24:26;31.73;;;21.77;;
13805;SDS011;6974;53.606;9.872;2024-02-28T05:26:53;34.20;;;23.57;;
13805;SDS011;6974;53.606;9.872;2024-02-28T05:29:20;29.43;;;21.80;;
13805;SDS011;6974;53.606;9.872;2024-02-28T05:31:48;33.23;;;22.60;;
13805;SDS011;6974;53.606;9.872;2024-02-28T05:34:15;32.60;;;22.63;;
13805;SDS011;6974;53.606;9.872;2024-02-28T05:36:42;34.00;;;22.70;;
13805;SDS011;6974;53.606;9.872;2024-02-28T05:39:08;35.10;;;23.50;;
13805;SDS011;6974;53.606;9.872;2024-02-28T05:41:35;30.03;;;22.50;;
13805;SDS011;6974;53.606;9.872;2024-02-28T05:44:01;31.67;;;22.53;;
13805;SDS011;6974;53.606;9.872;2024-02-28T05:46:28;33.30;;;22.60;;
13805;SDS011;6974;53.606;9.872;2024-02-28T05:48:57;33.83;;;23.10;;
13805;SDS011;6974;53.606;9.872;2024-02-28T05:51:24;30.57;;;22.13;;
13805;SDS011;6974;53.606;9.872;2024-02-28T05:53:51;32.33;;;23.10;;
13805;SDS011;6974;53.606;9.872;2024-02-28T05:56:17;32.97;;;24.20;;
13805;SDS011;6974;53.606;9.872;2024-02-28T05:58:45;32.37;;;23.10;;
13805;SDS011;6974;53.606;9.872;2024-02-28T06:01:17;33.97;;;23.80;;
13805;SDS011;6974;53.606;9.872;2024-02-28T06:03:45;32.90;;;23.00;;
13805;SDS011;6974;53.606;9.872;2024-02-28T06:06:13;31.97;;;22.50;;
13805;SDS011;6974;53.606;9.872;2024-02-28T06:08:40;33.70;;;23.43;;
13805;SDS011;6974;53.606;9.872;2024-02-28T06:11:08;33.83;;;23.80;;
13805;SDS011;6974;53.606;9.872;2024-02-28T06:13:36;33.43;;;23.73;;
13805;SDS011;6974;53.606;9.872;2024-02-28T06:16:03;33.53;;;23.20;;
13805;SDS011;6974;53.606;9.872;2024-02-28T06:18:30;33.67;;;24.37;;
13805;SDS011;6974;53.606;9.872;2024-02-28T06:20:58;33.67;;;23.13;;
13805;SDS011;6974;53.606;9.872;2024-02-28T06:23:27;31.80;;;22.83;;
13805;SDS011;6974;53.606;9.872;2024-02-28T06:25:54;29.70;;;21.40;;
13805;SDS011;6974;53.606;9.872;2024-02-28T06:28:21;29.60;;;21.53;;
13805;SDS011;6974;53.606;9.872;2024-02-28T06:30:48;30.30;;;21.87;;
13805;SDS011;6974;53.606;9.872;2024-02-28T06:33:15;31.13;;;22.03;;
13805;SDS011;6974;53.606;9.872;2024-02-28T06:35:41;32.10;;;21.53;;
13805;SDS011;6974;53.606;9.872;2024-02-28T06:38:08;31.93;;;22.77;;
13805;SDS011;6974;53.606;9.872;2024-02-28T06:40:36;29.27;;;21.13;;
13805;SDS011;6974;53.606;9.872;2024-02-28T06:43:03;30.43;;;21.90;;
13805;SDS011;6974;53.606;9.872;2024-02-28T06:45:31;27.70;;;20.40;;
13805;SDS011;6974;53.606;9.872;2024-02-28T06:47:57;27.63;;;20.43;;
13805;SDS011;6974;53.606;9.872;2024-02-28T06:50:24;28.87;;;20.93;;
13805;SDS011;6974;53.606;9.872;2024-02-28T06:52:51;29.53;;;21.03;;
13805;SDS011;6974;53.606;9.872;2024-02-28T06:55:18;29.47;;;21.00;;
13805;SDS011;6974;53.606;9.872;2024-02-28T06:57:47;30.63;;;20.93;;
13805;SDS011;6974;53.606;9.872;2024-02-28T07:00:14;26.47;;;18.90;;
13805;SDS011;6974;53.606;9.872;2024-02-28T07:02:41;26.90;;;19.80;;
13805;SDS011;6974;53.606;9.872;2024-02-28T07:05:08;26.57;;;19.47;;
13805;SDS011;6974;53.606;9.872;2024-02-28T07:07:34;25.23;;;19.17;;
13805;SDS011;6974;53.606;9.872;2024-02-28T07:10:02;24.23;;;17.97;;
13805;SDS011;6974;53.606;9.872;2024-02-28T07:12:30;24.50;;;19.10;;
13805;SDS011;6974;53.606;9.872;2024-02-28T07:14:58;24.33;;;17.90;;
13805;SDS011;6974;53.606;9.872;2024-02-28T07:17:25;24.83;;;18.50;;
13805;SDS011;6974;53.606;9.872;2024-02-28T07:19:52;23.53;;;17.63;;
13805;SDS011;6974;53.606;9.872;2024-02-28T07:22:18;25.97;;;19.07;;
13805;SDS011;6974;53.606;9.872;2024-02-28T07:24:46;23.27;;;17.90;;
13805;SDS011;6974;53.606;9.872;2024-02-28T07:27:12;23.77;;;18.27;;
13805;SDS011;6974;53.606;9.872;2024-02-28T07:29:39;27.10;;;18.60;;
13805;SDS011;6974;53.606;9.872;2024-02-28T07:32:07;22.63;;;18.43;;
13805;SDS011;6974;53.606;9.872;2024-02-28T07:34:34;23.13;;;18.20;;
13805;SDS011;6974;53.606;9.872;2024-02-28T07:37:01;25.30;;;18.63;;
13805;SDS011;6974;53.606;9.872;2024-02-28T07:39:28;23.70;;;18.57;;
13805;SDS011;6974;53.606;9.872;2024-02-28T07:41:54;25.00;;;18.57;;
13805;SDS011;6974;53.606;9.872;2024-02-28T07:44:21;23.00;;;17.93;;
13805;SDS011;6974;53.606;9.872;2024-02-28T07:46:48;26.03;;;18.50;;
13805;SDS011;6974;53.606;9.872;2024-02-28T07:49:17;25.57;;;19.03;;
13805;SDS011;6974;53.606;9.872;2024-02-28T07:51:44;25.67;;;20.07;;
13805;SDS011;6974;53.606;9.872;2024-02-28T07:54:11;27.03;;;19.70;;
13805;SDS011;6974;53.606;9.872;2024-02-28T07:56:38;27.23;;;19.70;;
13805;SDS011;6974;53.606;9.872;2024-02-28T07:59:05;26.70;;;19.47;;
13805;SDS011;6974;53.606;9.872;2024-02-28T08:01:31;28.13;;;20.67;;
13805;SDS011;6974;53.606;9.872;2024-02-28T08:03:58;27.17;;;20.67;;
13805;SDS011;6974;53.606;9.872;2024-02-28T08:06:28;29.33;;;21.67;;
13805;SDS011;6974;53.606;9.872;2024-02-28T08:08:56;26.67;;;21.53;;
13805;SDS011;6974;53.606;9.872;2024-02-28T08:11:22;28.67;;;21.67;;
13805;SDS011;6974;53.606;9.872;2024-02-28T08:13:50;32.43;;;22.87;;
13805;SDS011;6974;53.606;9.872;2024-02-28T08:16:17;30.60;;;21.03;;
13805;SDS011;6974;53.606;9.872;2024-02-28T08:18:43;29.47;;;22.20;;
13805;SDS011;6974;53.606;9.872;2024-02-28T08:21:10;33.13;;;23.97;;
13805;SDS011;6974;53.606;9.872;2024-02-28T08:23:38;32.07;;;24.27;;
13805;SDS011;6974;53.606;9.872;2024-02-28T08:26:05;32.97;;;23.07;;
13805;SDS011;6974;53.606;9.872;2024-02-28T08:28:32;32.13;;;23.43;;
13805;SDS011;6974;53.606;9.872;2024-02-28T08:30:58;31.70;;;22.60;;
13805;SDS011;6974;53.606;9.872;2024-02-28T08:33:25;34.53;;;25.17;;
13805;SDS011;6974;53.606;9.872;2024-02-28T08:35:52;31.50;;;23.07;;
13805;SDS011;6974;53.606;9.872;2024-02-28T08:38:19;32.20;;;24.07;;
13805;SDS011;6974;53.606;9.872;2024-02-28T08:40:47;31.37;;;23.53;;
13805;SDS011;6974;53.606;9.872;2024-02-28T08:43:14;31.03;;;22.33;;
13805;SDS011;6974;53.606;9.872;2024-02-28T08:45:40;31.10;;;22.80;;
13805;SDS011;6974;53.606;9.872;2024-02-28T08:48:07;33.57;;;24.93;;
13805;SDS011;6974;53.606;9.872;2024-02-28T08:50:34;32.77;;;23.87;;
13805;SDS011;6974;53.606;9.872;2024-02-28T08:53:01;33.37;;;24.63;;
13805;SDS011;6974;53.606;9.872;2024-02-28T08:55:28;34.27;;;24.67;;
13805;SDS011;6974;53.606;9.872;2024-02-28T08:57:57;34.47;;;24.33;;
13805;SDS011;6974;53.606;9.872;2024-02-28T09:00:24;35.33;;;25.03;;
13805;SDS011;6974;53.606;9.872;2024-02-28T09:02:50;35.73;;;25.50;;
13805;SDS011;6974;53.606;9.872;2024-02-28T09:05:17;38.60;;;25.07;;
13805;SDS011;6974;53.606;9.872;2024-02-28T09:07:44;35.53;;;26.23;;
13805;SDS011;6974;53.606;9.872;2024-02-28T09:10:16;33.67;;;24.93;;
13805;SDS011;6974;53.606;9.872;2024-02-28T09:12:46;35.40;;;25.70;;
13805;SDS011;6974;53.606;9.872;2024-02-28T09:15:14;35.57;;;25.73;;
13805;SDS011;6974;53.606;9.872;2024-02-28T09:17:41;35.73;;;25.50;;
13805;SDS011;6974;53.606;9.872;2024-02-28T09:20:08;41.47;;;26.70;;
13805;SDS011;6974;53.606;9.872;2024-02-28T09:22:35;31.60;;;23.93;;
13805;SDS011;6974;53.606;9.872;2024-02-28T09:25:02;32.90;;;23.93;;
13805;SDS011;6974;53.606;9.872;2024-02-28T09:27:29;35.23;;;24.33;;
13805;SDS011;6974;53.606;9.872;2024-02-28T09:29:56;37.57;;;26.20;;
13805;SDS011;6974;53.606;9.872;2024-02-28T09:32:24;31.87;;;23.10;;
13805;SDS011;6974;53.606;9.872;2024-02-28T09:34:52;33.53;;;24.37;;
13805;SDS011;6974;53.606;9.872;2024-02-28T09:37:19;33.30;;;24.60;;
13805;SDS011;6974;53.606;9.872;2024-02-28T09:39:47;34.50;;;24.93;;
13805;SDS011;6974;53.606;9.872;2024-02-28T09:42:14;32.70;;;24.97;;
13805;SDS011;6974;53.606;9.872;2024-02-28T09:44:41;33.97;;;24.87;;
13805;SDS011;6974;53.606;9.872;2024-02-28T09:47:09;32.00;;;23.20;;
13805;SDS011;6974;53.606;9.872;2024-02-28T09:49:38;30.33;;;22.27;;
13805;SDS011;6974;53.606;9.872;2024-02-28T09:52:05;31.47;;;23.10;;
13805;SDS011;6974;53.606;9.872;2024-02-28T09:54:32;30.83;;;22.73;;
13805;SDS011;6974;53.606;9.872;2024-02-28T09:56:59;30.43;;;22.83;;
13805;SDS011;6974;53.606;9.872;2024-02-28T09:59:26;30.40;;;23.47;;
13805;SDS011;6974;53.606;9.872;2024-02-28T10:01:55;30.90;;;23.33;;
13805;SDS011;6974;53.606;9.872;2024-02-28T10:04:23;31.53;;;22.83;;
13805;SDS011;6974;53.606;9.872;2024-02-28T10:06:52;33.43;;;24.03;;
13805;SDS011;6974;53.606;9.872;2024-02-28T10:09:19;31.27;;;22.43;;
13805;SDS011;6974;53.606;9.872;2024-02-28T10:11:46;27.63;;;21.60;;
13805;SDS011;6974;53.606;9.872;2024-02-28T10:14:16;25.93;;;20.93;;
13805;SDS011;6974;53.606;9.872;2024-02-28T10:16:44;30.53;;;21.90;;
13805;SDS011;6974;53.606;9.872;2024-02-28T10:19:11;28.73;;;22.17;;
13805;SDS011;6974;53.606;9.872;2024-02-28T10:21:38;28.27;;;21.27;;
13805;SDS011;6974;53.606;9.872;2024-02-28T10:24:06;28.50;;;21.43;;
13805;SDS011;6974;53.606;9.872;2024-02-28T10:26:41;26.03;;;20.33;;
13805;SDS011;6974;53.606;9.872;2024-02-28T10:29:08;24.83;;;19.57;;
13805;SDS011;6974;53.606;9.872;2024-02-28T10:31:35;29.57;;;20.83;;
13805;SDS011;6974;53.606;9.872;2024-02-28T10:34:02;23.87;;;19.17;;
13805;SDS011;6974;53.606;9.872;2024-02-28T10:36:31;26.07;;;20.00;;
13805;SDS011;6974;53.606;9.872;2024-02-28T10:38:59;27.23;;;21.23;;
13805;SDS011;6974;53.606;9.872;2024-02-28T10:41:28;25.93;;;19.90;;
13805;SDS011;6974;53.606;9.872;2024-02-28T10:43:55;27.00;;;20.47;;
13805;SDS011;6974;53.606;9.872;2024-02-28T10:46:22;25.10;;;20.30;;
13805;SDS011;6974;53.606;9.872;2024-02-28T10:48:49;26.13;;;19.73;;
13805;SDS011;6974;53.606;9.872;2024-02-28T10:51:18;25.90;;;20.00;;
13805;SDS011;6974;53.606;9.872;2024-02-28T10:53:50;25.53;;;18.90;;
13805;SDS011;6974;53.606;9.872;2024-02-28T10:56:25;25.57;;;18.87;;
13805;SDS011;6974;53.606;9.872;2024-02-28T10:58:57;27.27;;;20.23;;
13805;SDS011;6974;53.606;9.872;2024-02-28T11:01:25;25.77;;;19.00;;
13805;SDS011;6974;53.606;9.872;2024-02-28T11:03:53;23.97;;;19.17;;
13805;SDS011;6974;53.606;9.872;2024-02-28T11:06:20;26.47;;;20.90;;
13805;SDS011;6974;53.606;9.872;2024-02-28T11:08:48;26.80;;;21.17;;
13805;SDS011;6974;53.606;9.872;2024-02-28T11:11:19;25.30;;;20.17;;
13805;SDS011;6974;53.606;9.872;2024-02-28T11:13:53;28.33;;;21.23;;
13805;SDS011;6974;53.606;9.872;2024-02-28T11:16:27;24.43;;;19.27;;
13805;SDS011;6974;53.606;9.872;2024-02-28T11:18:55;24.00;;;19.07;;
13805;SDS011;6974;53.606;9.872;2024-02-28T11:21:25;23.73;;;19.03;;
13805;SDS011;6974;53.606;9.872;2024-02-28T11:23:53;24.57;;;19.30;;
13805;SDS011;6974;53.606;9.872;2024-02-28T11:26:24;27.40;;;19.07;;
13805;SDS011;6974;53.606;9.872;2024-02-28T11:28:53;23.10;;;18.73;;
13805;SDS011;6974;53.606;9.872;2024-02-28T11:31:21;27.97;;;20.50;;
13805;SDS011;6974;53.606;9.872;2024-02-28T11:33:48;25.03;;;18.87;;
13805;SDS011;6974;53.606;9.872;2024-02-28T11:36:15;26.97;;;20.30;;
13805;SDS011;6974;53.606;9.872;2024-02-28T11:38:43;27.07;;;21.37;;
13805;SDS011;6974;53.606;9.872;2024-02-28T11:41:11;27.37;;;20.03;;
13805;SDS011;6974;53.606;9.872;2024-02-28T11:43:37;26.80;;;20.17;;
13805;SDS011;6974;53.606;9.872;2024-02-28T11:46:08;28.60;;;21.00;;
13805;SDS011;6974;53.606;9.872;2024-02-28T11:48:36;26.83;;;20.53;;
13805;SDS011;6974;53.606;9.872;2024-02-28T11:51:02;27.57;;;21.43;;
13805;SDS011;6974;53.606;9.872;2024-02-28T11:53:29;27.53;;;20.00;;
13805;SDS011;6974;53.606;9.872;2024-02-28T11:55:56;26.67;;;20.93;;
13805;SDS011;6974;53.606;9.872;2024-02-28T11:58:23;26.20;;;18.80;;
13805;SDS011;6974;53.606;9.872;2024-02-28T12:00:50;25.07;;;19.43;;
13805;SDS011;6974;53.606;9.872;2024-02-28T12:03:22;26.20;;;18.80;;
13805;SDS011;6974;53.606;9.872;2024-02-28T12:05:49;26.40;;;19.87;;
13805;SDS011;6974;53.606;9.872;2024-02-28T12:08:16;25.93;;;18.60;;
13805;SDS011;6974;53.606;9.872;2024-02-28T12:10:44;29.23;;;19.93;;
13805;SDS011;6974;53.606;9.872;2024-02-28T12:13:11;27.37;;;18.67;;
13805;SDS011;6974;53.606;9.872;2024-02-28T12:15:41;27.17;;;19.43;;
13805;SDS011;6974;53.606;9.872;2024-02-28T12:18:08;27.53;;;19.23;;
13805;SDS011;6974;53.606;9.872;2024-02-28T12:20:37;26.13;;;18.57;;
13805;SDS011;6974;53.606;9.872;2024-02-28T12:23:03;28.67;;;19.20;;
13805;SDS011;6974;53.606;9.872;2024-02-28T12:25:30;26.57;;;19.57;;
13805;SDS011;6974;53.606;9.872;2024-02-28T12:27:57;28.00;;;19.73;;
13805;SDS011;6974;53.606;9.872;2024-02-28T12:30:24;28.63;;;19.50;;
13805;SDS011;6974;53.606;9.872;2024-02-28T12:32:51;28.70;;;20.40;;
13805;SDS011;6974;53.606;9.872;2024-02-28T12:35:18;25.30;;;18.90;;
13805;SDS011;6974;53.606;9.872;2024-02-28T12:37:46;27.00;;;18.60;;
13805;SDS011;6974;53.606;9.872;2024-02-28T12:40:14;24.87;;;18.33;;
13805;SDS011;6974;53.606;9.872;2024-02-28T12:42:42;24.97;;;18.17;;
13805;SDS011;6974;53.606;9.872;2024-02-28T12:45:09;25.43;;;18.60;;
13805;SDS011;6974;53.606;9.872;2024-02-28T12:47:36;28.60;;;17.80;;
13805;SDS011;6974;53.606;9.872;2024-02-28T12:50:03;22.73;;;16.87;;
13805;SDS011;6974;53.606;9.872;2024-02-28T12:52:32;27.00;;;17.23;;
13805;SDS011;6974;53.606;9.872;2024-02-28T12:55:00;24.23;;;16.00;;
13805;SDS011;6974;53.606;9.872;2024-02-28T12:57:27;22.63;;;16.83;;
13805;SDS011;6974;53.606;9.872;2024-02-28T12:59:54;25.07;;;16.97;;
13805;SDS011;6974;53.606;9.872;2024-02-28T13:02:21;24.97;;;16.73;;
13805;SDS011;6974;53.606;9.872;2024-02-28T13:04:48;23.43;;;17.23;;
13805;SDS011;6974;53.606;9.872;2024-02-28T13:07:15;22.93;;;16.23;;
13805;SDS011;6974;53.606;9.872;2024-02-28T13:09:44;20.43;;;14.57;;
13805;SDS011;6974;53.606;9.872;2024-02-28T13:12:12;22.87;;;16.17;;
13805;SDS011;6974;53.606;9.872;2024-02-28T13:14:39;23.47;;;16.33;;
13805;SDS011;6974;53.606;9.872;2024-02-28T13:17:06;21.87;;;16.47;;
13805;SDS011;6974;53.606;9.872;2024-02-28T13:19:33;24.33;;;17.03;;
13805;SDS011;6974;53.606;9.872;2024-02-28T13:22:00;25.10;;;16.30;;
13805;SDS011;6974;53.606;9.872;2024-02-28T13:24:27;24.57;;;17.33;;
13805;SDS011;6974;53.606;9.872;2024-02-28T13:26:54;23.93;;;17.20;;
13805;SDS011;6974;53.606;9.872;2024-02-28T13:29:22;26.57;;;17.83;;
13805;SDS011;6974;53.606;9.872;2024-02-28T13:31:49;27.10;;;18.90;;
13805;SDS011;6974;53.606;9.872;2024-02-28T13:34:16;24.47;;;17.20;;
13805;SDS011;6974;53.606;9.872;2024-02-28T13:36:43;29.77;;;18.63;;
13805;SDS011;6974;53.606;9.872;2024-02-28T13:39:10;28.33;;;18.43;;
13805;SDS011;6974;53.606;9.872;2024-02-28T13:41:37;25.33;;;17.67;;
13805;SDS011;6974;53.606;9.872;2024-02-28T13:44:05;28.20;;;18.47;;
13805;SDS011;6974;53.606;9.872;2024-02-28T13:46:34;27.70;;;19.17;;
13805;SDS011;6974;53.606;9.872;2024-02-28T13:49:01;23.23;;;17.73;;
13805;SDS011;6974;53.606;9.872;2024-02-28T13:51:29;25.70;;;18.60;;
13805;SDS011;6974;53.606;9.872;2024-02-28T13:53:56;24.70;;;17.80;;
13805;SDS011;6974;53.606;9.872;2024-02-28T13:56:23;28.53;;;18.70;;
13805;SDS011;6974;53.606;9.872;2024-02-28T13:58:49;25.17;;;17.53;;
13805;SDS011;6974;53.606;9.872;2024-02-28T14:01:17;26.10;;;18.63;;
13805;SDS011;6974;53.606;9.872;2024-02-28T14:03:45;27.23;;;18.20;;
13805;SDS011;6974;53.606;9.872;2024-02-28T14:06:12;24.40;;;17.20;;
13805;SDS011;6974;53.606;9.872;2024-02-28T14:08:39;22.80;;;16.83;;
13805;SDS011;6974;53.606;9.872;2024-02-28T14:11:06;26.43;;;18.07;;
13805;SDS011;6974;53.606;9.872;2024-02-28T14:13:32;24.03;;;16.67;;
13805;SDS011;6974;53.606;9.872;2024-02-28T14:15:59;25.10;;;17.60;;
13805;SDS011;6974;53.606;9.872;2024-02-28T14:18:26;23.20;;;17.03;;
13805;SDS011;6974;53.606;9.872;2024-02-28T14:20:54;21.27;;;15.23;;
13805;SDS011;6974;53.606;9.872;2024-02-28T14:23:21;24.87;;;16.80;;
13805;SDS011;6974;53.606;9.872;2024-02-28T14:25:48;25.30;;;16.33;;
13805;SDS011;6974;53.606;9.872;2024-02-28T14:28:15;22.60;;;15.20;;
13805;SDS011;6974;53.606;9.872;2024-02-28T14:30:44;21.60;;;14.93;;
13805;SDS011;6974;53.606;9.872;2024-02-28T14:33:14;22.37;;;15.47;;